sensor_id;sensor_type;location;lat;lon;timestamp;pressure;altitude;pressure_sealevel;temperature;humidity
74169;BME280;62523;53.336;83.690;2022-09-12T00:01:28;98123.91;;;8.58;83.29
74169;BME280;62523;53.336;83.690;2022-09-12T00:06:32;98137.47;;;8.65;83.41
74169;BME280;62523;53.336;83.690;2022-09-12T00:11:42;98117.94;;;8.29;86.08
74169;BME280;62523;53.336;83.690;2022-09-12T00:16:44;98153.78;;;8.43;85.99
74169;BME280;62523;53.336;83.690;2022-09-12T00:21:45;98173.56;;;8.49;85.33
74169;BME280;62523;53.336;83.690;2022-09-12T00:26:47;98180.50;;;8.50;84.87
74169;BME280;62523;53.336;83.690;2022-09-12T00:31:49;98179.09;;;8.44;85.31
74169;BME280;62523;53.336;83.690;2022-09-12T00:36:50;98187.25;;;8.39;85.47
74169;BME280;62523;53.336;83.690;2022-09-12T00:41:51;98197.19;;;8.34;84.99
74169;BME280;62523;53.336;83.690;2022-09-12T00:57:31;98205.03;;;8.49;83.93
74169;BME280;62523;53.336;83.690;2022-09-12T01:02:33;98212.22;;;8.59;83.55
74169;BME280;62523;53.336;83.690;2022-09-12T01:07:36;98212.78;;;8.77;82.25
74169;BME280;62523;53.336;83.690;2022-09-12T01:12:39;98210.38;;;8.87;82.18
74169;BME280;62523;53.336;83.690;2022-09-12T01:18:03;98210.19;;;9.41;79.08
74169;BME280;62523;53.336;83.690;2022-09-12T01:39:30;98212.59;;;8.93;82.09
74169;BME280;62523;53.336;83.690;2022-09-12T01:44:58;98227.75;;;9.15;81.22
74169;BME280;62523;53.336;83.690;2022-09-12T01:50:07;98239.09;;;9.54;80.44
74169;BME280;62523;53.336;83.690;2022-09-12T01:55:32;98232.56;;;9.73;79.71
74169;BME280;62523;53.336;83.690;2022-09-12T02:01:01;98234.13;;;9.88;79.19
74169;BME280;62523;53.336;83.690;2022-09-12T02:06:22;98216.78;;;9.86;79.09
74169;BME280;62523;53.336;83.690;2022-09-12T02:11:27;98214.13;;;10.22;78.60
74169;BME280;62523;53.336;83.690;2022-09-12T02:17:09;98212.00;;;10.28;78.48
74169;BME280;62523;53.336;83.690;2022-09-12T02:22:03;98207.38;;;10.55;77.73
74169;BME280;62523;53.336;83.690;2022-09-12T02:27:10;98212.00;;;10.52;77.95
74169;BME280;62523;53.336;83.690;2022-09-12T02:37:44;98215.69;;;10.38;78.17
74169;BME280;62523;53.336;83.690;2022-09-12T02:42:49;98209.69;;;10.23;78.74
74169;BME280;62523;53.336;83.690;2022-09-12T02:53:11;98230.84;;;10.21;79.14
74169;BME280;62523;53.336;83.690;2022-09-12T02:58:17;98231.72;;;10.22;79.55
74169;BME280;62523;53.336;83.690;2022-09-12T03:25:02;98240.53;;;9.97;83.81
74169;BME280;62523;53.336;83.690;2022-09-12T03:30:05;98241.94;;;9.64;85.08
74169;BME280;62523;53.336;83.690;2022-09-12T03:35:08;98230.50;;;10.02;84.97
74169;BME280;62523;53.336;83.690;2022-09-12T03:40:10;98242.47;;;9.69;87.36
74169;BME280;62523;53.336;83.690;2022-09-12T03:45:11;98247.94;;;9.66;88.59
74169;BME280;62523;53.336;83.690;2022-09-12T03:50:13;98259.28;;;9.28;86.96
74169;BME280;62523;53.336;83.690;2022-09-12T03:55:14;98265.38;;;9.16;86.50
74169;BME280;62523;53.336;83.690;2022-09-12T04:00:16;98257.53;;;8.76;87.15
74169;BME280;62523;53.336;83.690;2022-09-12T04:05:17;98254.91;;;8.49;86.56
74169;BME280;62523;53.336;83.690;2022-09-12T04:10:18;98262.25;;;8.44;88.36
74169;BME280;62523;53.336;83.690;2022-09-12T04:15:19;98242.38;;;8.39;89.04
74169;BME280;62523;53.336;83.690;2022-09-12T04:20:21;98232.84;;;8.24;91.61
74169;BME280;62523;53.336;83.690;2022-09-12T04:25:22;98233.69;;;8.25;94.89
74169;BME280;62523;53.336;83.690;2022-09-12T04:30:23;98227.69;;;8.23;91.89
74169;BME280;62523;53.336;83.690;2022-09-12T04:35:25;98227.69;;;8.23;93.36
74169;BME280;62523;53.336;83.690;2022-09-12T04:40:30;98225.91;;;8.23;92.65
74169;BME280;62523;53.336;83.690;2022-09-12T04:45:32;98228.00;;;8.18;92.43
74169;BME280;62523;53.336;83.690;2022-09-12T04:50:33;98220.44;;;8.40;92.64
74169;BME280;62523;53.336;83.690;2022-09-12T04:55:34;98224.38;;;8.48;92.09
74169;BME280;62523;53.336;83.690;2022-09-12T05:00:36;98229.81;;;8.45;92.82
74169;BME280;62523;53.336;83.690;2022-09-12T05:05:37;98235.22;;;8.69;91.04
74169;BME280;62523;53.336;83.690;2022-09-12T05:10:38;98231.00;;;8.93;90.43
74169;BME280;62523;53.336;83.690;2022-09-12T05:15:40;98236.19;;;8.68;91.19
74169;BME280;62523;53.336;83.690;2022-09-12T05:20:41;98237.28;;;8.78;91.05
74169;BME280;62523;53.336;83.690;2022-09-12T05:25:53;98239.81;;;8.92;90.67
74169;BME280;62523;53.336;83.690;2022-09-12T05:31:24;98251.91;;;8.95;91.47
74169;BME280;62523;53.336;83.690;2022-09-12T05:36:27;98261.94;;;8.88;91.87
74169;BME280;62523;53.336;83.690;2022-09-12T05:41:30;98267.88;;;9.05;93.04
74169;BME280;62523;53.336;83.690;2022-09-12T05:46:38;98279.94;;;8.94;92.96
74169;BME280;62523;53.336;83.690;2022-09-12T05:51:43;98287.41;;;9.00;92.37
74169;BME280;62523;53.336;83.690;2022-09-12T05:56:46;98299.75;;;9.13;92.42
74169;BME280;62523;53.336;83.690;2022-09-12T06:01:47;98311.50;;;9.07;92.25
74169;BME280;62523;53.336;83.690;2022-09-12T06:06:50;98324.84;;;9.04;91.49
74169;BME280;62523;53.336;83.690;2022-09-12T06:11:51;98326.78;;;9.28;91.35
74169;BME280;62523;53.336;83.690;2022-09-12T06:16:53;98337.31;;;9.28;91.47
74169;BME280;62523;53.336;83.690;2022-09-12T06:21:54;98352.66;;;9.34;90.93
74169;BME280;62523;53.336;83.690;2022-09-12T06:26:55;98368.88;;;9.53;89.47
74169;BME280;62523;53.336;83.690;2022-09-12T06:31:57;98375.91;;;9.53;89.51
74169;BME280;62523;53.336;83.690;2022-09-12T06:36:58;98393.09;;;9.71;87.57
74169;BME280;62523;53.336;83.690;2022-09-12T06:42:00;98410.16;;;10.04;85.47
74169;BME280;62523;53.336;83.690;2022-09-12T06:47:01;98412.78;;;10.17;84.59
74169;BME280;62523;53.336;83.690;2022-09-12T06:52:02;98425.84;;;10.18;83.01
74169;BME280;62523;53.336;83.690;2022-09-12T06:57:04;98438.19;;;10.56;80.45
74169;BME280;62523;53.336;83.690;2022-09-12T07:02:05;98448.16;;;10.51;80.68
74169;BME280;62523;53.336;83.690;2022-09-12T07:07:06;98485.78;;;10.40;79.81
74169;BME280;62523;53.336;83.690;2022-09-12T07:12:08;98491.78;;;10.42;79.41
74169;BME280;62523;53.336;83.690;2022-09-12T07:17:09;98487.78;;;10.50;76.98
74169;BME280;62523;53.336;83.690;2022-09-12T07:22:10;98514.81;;;10.90;76.57
74169;BME280;62523;53.336;83.690;2022-09-12T07:27:12;98524.72;;;10.99;74.79
74169;BME280;62523;53.336;83.690;2022-09-12T07:32:13;98558.00;;;11.00;74.05
74169;BME280;62523;53.336;83.690;2022-09-12T07:37:14;98573.47;;;11.18;73.15
74169;BME280;62523;53.336;83.690;2022-09-12T07:42:15;98567.34;;;11.30;71.28
74169;BME280;62523;53.336;83.690;2022-09-12T07:47:17;98586.72;;;11.42;70.79
74169;BME280;62523;53.336;83.690;2022-09-12T07:52:18;98617.38;;;11.56;68.44
74169;BME280;62523;53.336;83.690;2022-09-12T07:57:19;98624.53;;;11.66;67.65
74169;BME280;62523;53.336;83.690;2022-09-12T08:02:21;98645.50;;;11.81;65.73
74169;BME280;62523;53.336;83.690;2022-09-12T08:07:22;98658.00;;;12.03;65.88
74169;BME280;62523;53.336;83.690;2022-09-12T08:12:23;98665.63;;;12.19;66.60
74169;BME280;62523;53.336;83.690;2022-09-12T08:17:25;98682.94;;;12.23;66.61
74169;BME280;62523;53.336;83.690;2022-09-12T08:22:26;98695.41;;;11.97;66.73
74169;BME280;62523;53.336;83.690;2022-09-12T08:27:27;98699.72;;;12.70;65.60
74169;BME280;62523;53.336;83.690;2022-09-12T08:32:28;98705.28;;;12.78;64.72
74169;BME280;62523;53.336;83.690;2022-09-12T08:37:30;98729.38;;;12.98;64.44
74169;BME280;62523;53.336;83.690;2022-09-12T08:42:48;98736.16;;;12.29;67.20
74169;BME280;62523;53.336;83.690;2022-09-12T08:47:54;98772.44;;;12.76;65.66
74169;BME280;62523;53.336;83.690;2022-09-12T08:52:57;98791.19;;;12.84;65.71
74169;BME280;62523;53.336;83.690;2022-09-12T08:58:23;98789.75;;;13.15;61.94
74169;BME280;62523;53.336;83.690;2022-09-12T09:09:08;98832.84;;;13.04;59.86
74169;BME280;62523;53.336;83.690;2022-09-12T09:19:36;98930.06;;;10.80;74.99
74169;BME280;62523;53.336;83.690;2022-09-12T09:24:53;98953.72;;;9.94;82.58
74169;BME280;62523;53.336;83.690;2022-09-12T09:29:56;98960.22;;;9.42;86.79
74169;BME280;62523;53.336;83.690;2022-09-12T09:34:57;98971.34;;;9.31;87.25
74169;BME280;62523;53.336;83.690;2022-09-12T09:40:23;98981.13;;;9.75;85.62
74169;BME280;62523;53.336;83.690;2022-09-12T09:45:27;98982.28;;;10.00;83.71
74169;BME280;62523;53.336;83.690;2022-09-12T09:50:29;98999.84;;;10.30;83.90
74169;BME280;62523;53.336;83.690;2022-09-12T09:55:36;99003.69;;;10.24;80.96
74169;BME280;62523;53.336;83.690;2022-09-12T10:00:39;99025.25;;;10.31;81.72
74169;BME280;62523;53.336;83.690;2022-09-12T10:05:54;99036.66;;;10.45;81.56
74169;BME280;62523;53.336;83.690;2022-09-12T10:16:19;99068.19;;;10.61;82.84
74169;BME280;62523;53.336;83.690;2022-09-12T10:21:33;99080.66;;;10.58;83.56
74169;BME280;62523;53.336;83.690;2022-09-12T10:26:37;99095.31;;;10.17;87.32
74169;BME280;62523;53.336;83.690;2022-09-12T10:31:52;99119.41;;;10.25;83.61
74169;BME280;62523;53.336;83.690;2022-09-12T10:37:09;99122.00;;;10.11;nan
74169;BME280;62523;53.336;83.690;2022-09-12T10:42:17;99141.34;;;10.26;84.64
74169;BME280;62523;53.336;83.690;2022-09-12T10:47:38;99158.63;;;10.46;83.31
74169;BME280;62523;53.336;83.690;2022-09-12T10:52:40;99177.50;;;10.69;81.31
74169;BME280;62523;53.336;83.690;2022-09-12T10:58:25;99188.84;;;10.85;79.08
74169;BME280;62523;53.336;83.690;2022-09-12T11:03:49;99205.13;;;10.92;79.36
74169;BME280;62523;53.336;83.690;2022-09-12T11:09:09;99212.75;;;10.82;77.81
74169;BME280;62523;53.336;83.690;2022-09-12T11:19:51;99254.56;;;10.42;76.50
74169;BME280;62523;53.336;83.690;2022-09-12T11:30:11;99286.56;;;10.02;74.52
74169;BME280;62523;53.336;83.690;2022-09-12T11:35:25;99307.94;;;9.96;74.85
74169;BME280;62523;53.336;83.690;2022-09-12T11:40:32;99328.47;;;9.90;75.75
74169;BME280;62523;53.336;83.690;2022-09-12T11:45:43;99344.91;;;9.77;76.33
74169;BME280;62523;53.336;83.690;2022-09-12T11:50:45;99371.16;;;9.61;75.52
74169;BME280;62523;53.336;83.690;2022-09-12T11:56:06;99386.16;;;9.42;74.73
74169;BME280;62523;53.336;83.690;2022-09-12T12:01:26;99409.59;;;9.29;73.97
74169;BME280;62523;53.336;83.690;2022-09-12T12:06:35;99423.72;;;9.27;73.92
74169;BME280;62523;53.336;83.690;2022-09-12T12:11:47;99440.66;;;9.21;74.33
74169;BME280;62523;53.336;83.690;2022-09-12T12:16:50;99442.25;;;9.06;73.92
74169;BME280;62523;53.336;83.690;2022-09-12T12:21:51;99480.66;;;9.09;74.19
74169;BME280;62523;53.336;83.690;2022-09-12T12:26:56;99478.50;;;8.99;74.80
74169;BME280;62523;53.336;83.690;2022-09-12T12:52:54;99536.63;;;8.92;74.41
74169;BME280;62523;53.336;83.690;2022-09-12T12:57:59;99542.88;;;8.89;74.59
74169;BME280;62523;53.336;83.690;2022-09-12T13:03:16;99558.78;;;8.86;72.90
74169;BME280;62523;53.336;83.690;2022-09-12T13:08:29;99575.31;;;8.88;72.41
74169;BME280;62523;53.336;83.690;2022-09-12T13:18:42;99609.88;;;8.79;72.72
74169;BME280;62523;53.336;83.690;2022-09-12T13:23:59;99642.47;;;8.75;73.30
74169;BME280;62523;53.336;83.690;2022-09-12T13:29:15;99651.53;;;8.68;73.85
74169;BME280;62523;53.336;83.690;2022-09-12T13:34:28;99654.38;;;8.63;73.70
74169;BME280;62523;53.336;83.690;2022-09-12T13:39:46;99660.47;;;8.64;73.97
74169;BME280;62523;53.336;83.690;2022-09-12T13:50:21;99693.97;;;8.58;73.99
74169;BME280;62523;53.336;83.690;2022-09-12T13:55:27;99696.84;;;8.52;73.87
74169;BME280;62523;53.336;83.690;2022-09-12T14:00:32;99706.84;;;8.43;74.39
74169;BME280;62523;53.336;83.690;2022-09-12T14:05:37;99728.59;;;8.46;74.25
74169;BME280;62523;53.336;83.690;2022-09-12T14:10:42;99730.69;;;8.36;73.79
74169;BME280;62523;53.336;83.690;2022-09-12T14:15:46;99735.94;;;8.36;73.92
74169;BME280;62523;53.336;83.690;2022-09-12T14:20:49;99750.25;;;8.29;73.63
74169;BME280;62523;53.336;83.690;2022-09-12T14:25:57;99770.59;;;8.24;73.48
74169;BME280;62523;53.336;83.690;2022-09-12T14:31:05;99773.22;;;8.24;74.00
74169;BME280;62523;53.336;83.690;2022-09-12T14:36:18;99775.38;;;8.13;73.77
74169;BME280;62523;53.336;83.690;2022-09-12T14:41:27;99790.31;;;8.11;74.02
74169;BME280;62523;53.336;83.690;2022-09-12T14:46:35;99800.94;;;8.08;74.17
74169;BME280;62523;53.336;83.690;2022-09-12T14:51:39;99812.38;;;8.07;73.92
74169;BME280;62523;53.336;83.690;2022-09-12T14:56:53;99833.22;;;8.10;73.51
74169;BME280;62523;53.336;83.690;2022-09-12T15:12:25;99851.66;;;8.08;73.23
74169;BME280;62523;53.336;83.690;2022-09-12T15:17:26;99853.44;;;8.08;73.34
74169;BME280;62523;53.336;83.690;2022-09-12T15:22:27;99859.91;;;7.97;73.83
74169;BME280;62523;53.336;83.690;2022-09-12T15:27:28;99871.22;;;7.99;73.27
74169;BME280;62523;53.336;83.690;2022-09-12T15:32:29;99874.81;;;7.97;73.62
74169;BME280;62523;53.336;83.690;2022-09-12T15:37:31;99885.34;;;7.95;74.02
74169;BME280;62523;53.336;83.690;2022-09-12T15:42:35;99898.47;;;7.95;73.83
74169;BME280;62523;53.336;83.690;2022-09-12T15:47:36;99905.50;;;7.95;74.07
74169;BME280;62523;53.336;83.690;2022-09-12T15:52:37;99914.94;;;8.00;73.98
74169;BME280;62523;53.336;83.690;2022-09-12T15:57:39;99915.09;;;7.96;73.66
74169;BME280;62523;53.336;83.690;2022-09-12T16:02:48;99915.81;;;7.99;73.45
74169;BME280;62523;53.336;83.690;2022-09-12T16:07:53;99928.88;;;8.01;73.79
74169;BME280;62523;53.336;83.690;2022-09-12T16:12:55;99943.63;;;8.05;73.74
74169;BME280;62523;53.336;83.690;2022-09-12T16:17:57;99943.72;;;8.02;73.59
74169;BME280;62523;53.336;83.690;2022-09-12T16:22:58;99951.66;;;8.00;73.58
74169;BME280;62523;53.336;83.690;2022-09-12T16:28:00;99960.13;;;8.09;73.97
74169;BME280;62523;53.336;83.690;2022-09-12T16:33:01;99970.44;;;8.13;73.50
74169;BME280;62523;53.336;83.690;2022-09-12T16:38:03;99971.72;;;8.02;73.55
74169;BME280;62523;53.336;83.690;2022-09-12T16:43:04;99986.34;;;8.09;74.02
74169;BME280;62523;53.336;83.690;2022-09-12T16:48:05;99978.31;;;8.13;73.22
74169;BME280;62523;53.336;83.690;2022-09-12T16:53:06;99991.59;;;8.09;73.28
74169;BME280;62523;53.336;83.690;2022-09-12T16:58:08;99991.69;;;8.06;72.68
74169;BME280;62523;53.336;83.690;2022-09-12T17:03:09;99998.66;;;8.07;73.26
74169;BME280;62523;53.336;83.690;2022-09-12T17:08:10;100003.03;;;8.06;73.36
74169;BME280;62523;53.336;83.690;2022-09-12T17:13:12;100015.25;;;8.07;72.97
74169;BME280;62523;53.336;83.690;2022-09-12T17:18:13;100010.03;;;8.07;72.90
74169;BME280;62523;53.336;83.690;2022-09-12T17:23:14;100020.41;;;8.10;72.66
74169;BME280;62523;53.336;83.690;2022-09-12T17:28:16;100014.28;;;8.10;73.32
74169;BME280;62523;53.336;83.690;2022-09-12T17:33:17;100028.19;;;8.13;73.02
74169;BME280;62523;53.336;83.690;2022-09-12T17:38:18;100030.84;;;8.12;73.18
74169;BME280;62523;53.336;83.690;2022-09-12T17:43:20;100040.38;;;8.14;73.32
74169;BME280;62523;53.336;83.690;2022-09-12T17:48:21;100046.63;;;8.10;73.71
74169;BME280;62523;53.336;83.690;2022-09-12T17:53:22;100042.34;;;8.08;73.79
74169;BME280;62523;53.336;83.690;2022-09-12T17:58:23;100030.47;;;7.97;73.14
74169;BME280;62523;53.336;83.690;2022-09-12T18:03:25;100050.81;;;8.16;75.45
74169;BME280;62523;53.336;83.690;2022-09-12T18:08:26;100054.19;;;7.94;77.42
74169;BME280;62523;53.336;83.690;2022-09-12T18:13:27;100058.88;;;7.85;79.43
74169;BME280;62523;53.336;83.690;2022-09-12T18:18:28;100071.25;;;7.81;79.13
74169;BME280;62523;53.336;83.690;2022-09-12T18:23:30;100072.28;;;7.75;79.11
74169;BME280;62523;53.336;83.690;2022-09-12T18:28:41;100080.66;;;7.87;77.68
74169;BME280;62523;53.336;83.690;2022-09-12T18:33:43;100077.50;;;7.77;78.55
74169;BME280;62523;53.336;83.690;2022-09-12T18:38:44;100078.41;;;7.76;76.97
74169;BME280;62523;53.336;83.690;2022-09-12T18:43:46;100075.72;;;7.77;74.87
74169;BME280;62523;53.336;83.690;2022-09-12T18:48:48;100074.59;;;7.85;71.81
74169;BME280;62523;53.336;83.690;2022-09-12T18:53:51;100081.66;;;7.83;69.99
74169;BME280;62523;53.336;83.690;2022-09-12T18:58:55;100085.38;;;7.77;71.03
74169;BME280;62523;53.336;83.690;2022-09-12T19:03:57;100089.63;;;7.81;70.45
74169;BME280;62523;53.336;83.690;2022-09-12T19:09:00;100083.72;;;7.74;70.81
74169;BME280;62523;53.336;83.690;2022-09-12T19:14:02;100090.53;;;7.78;71.84
74169;BME280;62523;53.336;83.690;2022-09-12T19:19:03;100078.75;;;7.65;72.52
74169;BME280;62523;53.336;83.690;2022-09-12T19:24:06;100082.50;;;7.56;73.74
74169;BME280;62523;53.336;83.690;2022-09-12T19:29:10;100058.59;;;7.39;74.32
74169;BME280;62523;53.336;83.690;2022-09-12T19:34:12;100076.53;;;7.53;74.50
74169;BME280;62523;53.336;83.690;2022-09-12T19:39:17;100073.44;;;7.67;74.80
74169;BME280;62523;53.336;83.690;2022-09-12T19:44:19;100077.19;;;7.59;73.74
74169;BME280;62523;53.336;83.690;2022-09-12T19:49:20;100067.03;;;7.49;74.13
74169;BME280;62523;53.336;83.690;2022-09-12T19:54:21;100072.94;;;7.55;73.78
74169;BME280;62523;53.336;83.690;2022-09-12T19:59:22;100069.56;;;7.52;74.40
74169;BME280;62523;53.336;83.690;2022-09-12T20:04:24;100075.81;;;7.48;73.98
74169;BME280;62523;53.336;83.690;2022-09-12T20:09:24;100076.81;;;7.44;74.23
74169;BME280;62523;53.336;83.690;2022-09-12T20:14:26;100073.50;;;7.37;74.10
74169;BME280;62523;53.336;83.690;2022-09-12T20:19:27;100087.75;;;7.28;75.61
74169;BME280;62523;53.336;83.690;2022-09-12T20:24:28;100096.41;;;7.32;75.80
74169;BME280;62523;53.336;83.690;2022-09-12T20:29:30;100096.63;;;7.24;73.98
74169;BME280;62523;53.336;83.690;2022-09-12T20:34:31;100088.56;;;7.58;72.55
74169;BME280;62523;53.336;83.690;2022-09-12T20:39:32;100083.94;;;7.40;72.77
74169;BME280;62523;53.336;83.690;2022-09-12T20:44:34;100099.66;;;7.40;73.90
74169;BME280;62523;53.336;83.690;2022-09-12T20:49:35;100095.81;;;7.22;74.67
74169;BME280;62523;53.336;83.690;2022-09-12T20:54:36;100090.97;;;7.10;75.78
74169;BME280;62523;53.336;83.690;2022-09-12T20:59:37;100089.44;;;7.01;76.00
74169;BME280;62523;53.336;83.690;2022-09-12T21:04:42;100094.28;;;6.85;76.93
74169;BME280;62523;53.336;83.690;2022-09-12T21:09:43;100088.84;;;6.60;76.09
74169;BME280;62523;53.336;83.690;2022-09-12T21:14:45;100096.19;;;6.47;78.23
74169;BME280;62523;53.336;83.690;2022-09-12T21:19:46;100099.31;;;6.60;78.04
74169;BME280;62523;53.336;83.690;2022-09-12T21:24:47;100105.44;;;6.61;77.97
74169;BME280;62523;53.336;83.690;2022-09-12T21:29:48;100109.78;;;6.60;77.69
74169;BME280;62523;53.336;83.690;2022-09-12T21:34:50;100113.28;;;6.28;78.80
74169;BME280;62523;53.336;83.690;2022-09-12T21:39:51;100113.81;;;6.06;79.63
74169;BME280;62523;53.336;83.690;2022-09-12T21:44:52;100123.69;;;5.93;80.99
74169;BME280;62523;53.336;83.690;2022-09-12T21:49:54;100119.53;;;5.86;81.18
74169;BME280;62523;53.336;83.690;2022-09-12T21:54:55;100118.03;;;6.13;80.27
74169;BME280;62523;53.336;83.690;2022-09-12T21:59:57;100127.31;;;6.25;80.04
74169;BME280;62523;53.336;83.690;2022-09-12T22:04:58;100129.19;;;6.20;80.90
74169;BME280;62523;53.336;83.690;2022-09-12T22:09:59;100138.88;;;6.17;81.60
74169;BME280;62523;53.336;83.690;2022-09-12T22:15:00;100141.78;;;6.04;82.51
74169;BME280;62523;53.336;83.690;2022-09-12T22:20:02;100136.63;;;6.01;82.28
74169;BME280;62523;53.336;83.690;2022-09-12T22:25:03;100142.00;;;5.93;82.61
74169;BME280;62523;53.336;83.690;2022-09-12T22:30:06;100144.63;;;5.93;83.58
74169;BME280;62523;53.336;83.690;2022-09-12T22:35:08;100143.03;;;5.88;84.22
74169;BME280;62523;53.336;83.690;2022-09-12T22:40:09;100153.06;;;5.69;85.14
74169;BME280;62523;53.336;83.690;2022-09-12T22:45:11;100158.44;;;5.61;85.74
74169;BME280;62523;53.336;83.690;2022-09-12T22:50:12;100163.13;;;5.47;86.22
74169;BME280;62523;53.336;83.690;2022-09-12T22:55:14;100157.09;;;5.43;86.34
74169;BME280;62523;53.336;83.690;2022-09-12T23:00:15;100176.13;;;5.50;86.38
74169;BME280;62523;53.336;83.690;2022-09-12T23:05:19;100177.25;;;5.38;86.76
74169;BME280;62523;53.336;83.690;2022-09-12T23:10:20;100175.41;;;5.43;87.20
74169;BME280;62523;53.336;83.690;2022-09-12T23:15:21;100181.22;;;5.56;86.41
74169;BME280;62523;53.336;83.690;2022-09-12T23:20:22;100192.53;;;5.57;86.56
74169;BME280;62523;53.336;83.690;2022-09-12T23:25:23;100197.06;;;5.48;87.10
74169;BME280;62523;53.336;83.690;2022-09-12T23:30:25;100205.06;;;5.41;87.76
74169;BME280;62523;53.336;83.690;2022-09-12T23:35:26;100218.19;;;5.38;88.71
74169;BME280;62523;53.336;83.690;2022-09-12T23:40:28;100221.81;;;5.32;88.80
74169;BME280;62523;53.336;83.690;2022-09-12T23:45:29;100235.72;;;5.32;89.35
74169;BME280;62523;53.336;83.690;2022-09-12T23:50:30;100230.66;;;5.25;89.60
74169;BME280;62523;53.336;83.690;2022-09-12T23:55:31;100247.22;;;5.24;89.49
